首页
METAR-TAF:

METAR-TAF

机场 :

塞舌尔国际机场

维多利亚, 马埃岛, 塞舌尔

纬度: 04-40S, 经度: 055-31E, 海拔: 3米

当前天气观测

该预报发布于43分钟前的02:00 UTC
风速3节,风向南转南东
温度 27°C
湿度 79%
气压 1012 hPa
能见度10公里或以上
少量云层高于1800英尺
多云层高于9000英尺

METAR: FSIA 210200Z 15003KT 9999 FEW018 BKN090 27/23 Q1012 NOSIG

时间: 06:43 (02:43 UTC)

预报

该预报发布于3小时和40分钟前的23:03 UTC
预报有效从21日的 00点(UTC)到 21日的 24点(UTC)
风速5节,风向多变
能见度10公里或以上
散云层高于1800英尺
几率 40% :
短暂存在
从 21日的 12点(UTC)到 21日的 18点(UTC)
多云层高于1800英尺
小阵雨

TAF: FSIA 202303Z 2100/2124 VRB05KT 9999 SCT018 PROB40 TEMPO 2112/2118 -SHRA BKN018

超过4000个机场的气象观测和天气预报(METAR&TAF报告)。

可查询的气象台以黄色和红色小点在地图上表示。

将鼠标移到小点上方,可查看气象台名称。

然后点击查看天气观测和预报。

如需切换地图:点击带黑十字的绿色按钮放大地图;点击带横线的绿色按钮缩小地图;或者点击绿色箭头查看邻近地区的地图。


METAR-TAF: